Decoded Metar for YPGV (GOVE AIRPORT in AUSTRALIA) (IATA:N/A) | Meteo·Mobile Aviation Weather
aviador You're here:

YPGV Decoded Metar

GOVE AIRPORT in AUSTRALIA
Report Time2018-08-20 01:00:00
UTC Time2018-08-20 01:26:23
Flight Rules vfr VFR
Wind130° at 20 kt
W.Decomp.*RWY 13: 20.0 kt HW 1.4 kt LCW
W.Rank130° ranks 3
Current wind is above 130° avg. (7.7)
Visibility9999 m
Phenomena:N/A
Clouds:Few 036 Hf
Expected CloudBase > 5,200 ft AGL from Temp-Dew spread
CeilingNone
Temp28°C (ISA +13)
Dew Point15°C (45% RH)
Heat Index28.0°C
AAT22.4°C
QNH1016 hPa
Density Alt1,844 ft
Elevation180 ft
Report Wrong Elevation
Raw Report
METAR YPGV 200100Z 13020KT 9999 FEW036 28/15 Q1016=

Extra information for YPGV:More info

Metar Taf Metar & Taf Last 4 Metars F.Rules Stats Wind Profile Meteogram Temp Stats Airport Information Weather charts Add Link Nearby VenuesMetar ALERT Operation Metar Decoded Social comments